createdAt,value
2022-11-12T00:00:06.119Z,11.10
2022-11-12T00:02:40.229Z,11.10
2022-11-12T00:05:19.693Z,11.02
2022-11-12T00:07:53.889Z,11.00
2022-11-12T00:10:24.015Z,10.99
2022-11-12T00:12:55.773Z,11.02
2022-11-12T00:15:24.605Z,11.03
2022-11-12T00:17:54.529Z,11.02
2022-11-12T00:20:23.830Z,11.01
2022-11-12T00:22:55.083Z,11.10
2022-11-12T00:25:24.790Z,11.06
2022-11-12T00:27:53.677Z,11.03
2022-11-12T00:30:22.819Z,11.04
2022-11-12T00:32:55.055Z,11.08
2022-11-12T00:35:25.359Z,11.13
2022-11-12T00:37:59.766Z,11.12
2022-11-12T00:40:33.433Z,11.11
2022-11-12T00:43:06.778Z,11.07
2022-11-12T00:45:36.451Z,11.03
2022-11-12T00:48:30.524Z,11.07
2022-11-12T00:51:09.640Z,11.10
2022-11-12T00:53:46.991Z,11.12
2022-11-12T00:56:30.555Z,11.09
2022-11-12T00:59:06.793Z,11.07
2022-11-12T01:01:40.632Z,11.13
2022-11-12T01:04:16.466Z,11.10
2022-11-12T01:06:45.724Z,11.05
2022-11-12T01:09:19.071Z,10.99
2022-11-12T01:11:48.442Z,11.08
2022-11-12T01:14:22.663Z,11.03
2022-11-12T01:16:52.715Z,10.99
2022-11-12T01:19:27.120Z,11.01
2022-11-12T01:22:04.176Z,11.01
2022-11-12T01:24:36.551Z,10.99
2022-11-12T01:27:10.267Z,11.04
2022-11-12T01:29:41.965Z,10.99
2022-11-12T01:32:18.163Z,10.94
2022-11-12T01:34:55.254Z,11.05
2022-11-12T01:37:26.521Z,11.07
2022-11-12T01:40:04.387Z,11.03
2022-11-12T01:42:35.342Z,11.02
2022-11-12T01:45:20.407Z,11.07
2022-11-12T01:47:54.861Z,10.99
2022-11-12T01:50:38.935Z,11.04
2022-11-12T01:53:15.564Z,11.05
2022-11-12T01:55:53.297Z,10.95
2022-11-12T01:58:37.035Z,10.97
2022-11-12T02:01:09.708Z,10.88
2022-11-12T02:03:38.495Z,10.85
2022-11-12T02:06:14.350Z,10.86
2022-11-12T02:08:44.899Z,10.81
2022-11-12T02:11:23.701Z,10.81
2022-11-12T02:14:12.396Z,10.82
2022-11-12T02:16:51.591Z,10.65
2022-11-12T02:19:21.856Z,10.52
2022-11-12T02:22:02.486Z,10.39
2022-11-12T02:24:38.188Z,10.25
2022-11-12T02:27:15.065Z,10.33
2022-11-12T02:29:50.073Z,10.32
2022-11-12T02:32:28.245Z,10.22
2022-11-12T02:34:58.788Z,10.35
2022-11-12T02:37:36.163Z,10.34
2022-11-12T02:40:10.086Z,10.28
2022-11-12T02:42:42.443Z,10.20
2022-11-12T02:45:13.425Z,10.08
2022-11-12T02:47:51.921Z,9.99
2022-11-12T02:50:21.636Z,9.94
2022-11-12T02:52:51.932Z,9.98
2022-11-12T02:55:24.414Z,10.04
2022-11-12T02:57:53.762Z,10.07
2022-11-12T03:00:25.283Z,10.18
2022-11-12T03:03:02.786Z,10.04
2022-11-12T03:05:34.986Z,10.05
2022-11-12T03:08:10.348Z,10.01
2022-11-12T03:10:43.975Z,10.08
2022-11-12T03:13:16.261Z,10.08
2022-11-12T03:15:45.544Z,10.04
2022-11-12T03:18:18.524Z,10.14
2022-11-12T03:20:53.743Z,10.14
2022-11-12T03:23:29.234Z,10.17
2022-11-12T03:26:00.773Z,10.10
2022-11-12T03:28:30.067Z,10.13
2022-11-12T03:31:01.742Z,10.17
2022-11-12T03:33:39.984Z,10.09
2022-11-12T03:36:19.456Z,10.05
2022-11-12T03:38:50.746Z,10.04
2022-11-12T03:41:20.404Z,10.11
2022-11-12T03:43:55.245Z,10.07
2022-11-12T03:46:34.065Z,10.18
2022-11-12T03:49:05.691Z,10.23
2022-11-12T03:51:34.842Z,10.25
2022-11-12T03:54:14.696Z,10.23
2022-11-12T03:56:50.237Z,10.14
2022-11-12T03:59:25.687Z,10.22
2022-11-12T04:02:03.761Z,10.21
2022-11-12T04:04:46.587Z,10.36
2022-11-12T04:07:36.401Z,10.29
2022-11-12T04:10:20.288Z,10.38
2022-11-12T04:13:08.890Z,10.31
2022-11-12T04:15:49.548Z,10.35
2022-11-12T04:18:44.951Z,10.38
2022-11-12T04:21:43.532Z,10.41
2022-11-12T04:24:36.279Z,10.45
2022-11-12T04:27:08.930Z,10.45
2022-11-12T04:29:58.047Z,10.39
2022-11-12T04:32:34.939Z,10.42
2022-11-12T04:35:06.385Z,10.49
2022-11-12T04:37:52.770Z,10.42
2022-11-12T04:40:49.479Z,10.40
2022-11-12T04:43:39.615Z,10.35
2022-11-12T04:46:08.971Z,10.35
2022-11-12T04:48:46.570Z,10.36
2022-11-12T04:51:48.944Z,10.37
2022-11-12T04:54:32.215Z,10.43
2022-11-12T04:57:02.928Z,10.37
2022-11-12T04:59:36.999Z,10.41
2022-11-12T05:02:09.078Z,10.40
2022-11-12T05:04:43.807Z,10.47
2022-11-12T05:07:13.468Z,10.43
2022-11-12T05:09:49.166Z,10.41
2022-11-12T05:12:31.463Z,10.52
2022-11-12T05:15:05.949Z,10.49
2022-11-12T05:17:35.539Z,10.59
2022-11-12T05:20:05.147Z,10.43
2022-11-12T05:22:47.888Z,10.44
2022-11-12T05:25:27.358Z,10.48
2022-11-12T05:27:56.419Z,10.51
2022-11-12T05:30:27.787Z,10.54
2022-11-12T05:32:57.338Z,10.56
2022-11-12T05:35:28.106Z,10.58
2022-11-12T05:38:07.095Z,10.53
2022-11-12T05:40:38.767Z,10.55
2022-11-12T05:43:16.737Z,10.53
2022-11-12T05:45:49.679Z,10.48
2022-11-12T05:48:23.973Z,10.60
2022-11-12T05:51:12.847Z,10.55
2022-11-12T05:53:49.955Z,10.57
2022-11-12T05:56:19.023Z,10.52
2022-11-12T05:58:48.758Z,10.51
2022-11-12T06:01:19.490Z,10.60
2022-11-12T06:03:50.745Z,10.55
2022-11-12T06:06:25.802Z,10.59
2022-11-12T06:08:57.473Z,10.56
2022-11-12T06:11:26.383Z,10.63
2022-11-12T06:14:03.894Z,10.61
2022-11-12T06:16:37.703Z,10.61
2022-11-12T06:19:07.673Z,10.64
2022-11-12T06:21:41.760Z,10.59
2022-11-12T06:24:14.361Z,10.66
2022-11-12T06:26:43.565Z,10.70
2022-11-12T06:29:14.535Z,10.78
2022-11-12T06:31:47.612Z,10.77
2022-11-12T06:34:16.765Z,10.73
2022-11-12T06:36:53.209Z,10.78
2022-11-12T06:39:27.588Z,10.76
2022-11-12T06:41:58.971Z,10.78
2022-11-12T06:44:31.407Z,10.79
2022-11-12T06:47:04.885Z,10.79
2022-11-12T06:49:39.315Z,10.76
2022-11-12T06:52:11.117Z,10.83
2022-11-12T06:54:46.529Z,10.80
2022-11-12T06:57:16.144Z,10.87
2022-11-12T06:59:49.573Z,10.89
2022-11-12T07:02:20.454Z,10.92
2022-11-12T07:04:49.437Z,10.81
2022-11-12T07:07:21.780Z,10.82
2022-11-12T07:09:51.114Z,10.83
2022-11-12T07:12:24.725Z,10.89
2022-11-12T07:14:57.014Z,10.86
2022-11-12T07:17:35.214Z,10.97
2022-11-12T07:20:05.975Z,10.87
2022-11-12T07:22:35.921Z,10.98
2022-11-12T07:25:06.339Z,11.01
2022-11-12T07:27:35.598Z,10.96
2022-11-12T07:30:07.591Z,11.00
2022-11-12T07:32:43.377Z,10.99
2022-11-12T07:35:13.827Z,11.02
2022-11-12T07:37:43.026Z,11.02
2022-11-12T07:40:13.539Z,11.01
2022-11-12T07:42:42.557Z,11.03
2022-11-12T07:45:13.299Z,10.97
2022-11-12T07:47:44.327Z,11.02
2022-11-12T07:50:15.519Z,11.03
2022-11-12T07:52:46.616Z,11.22
2022-11-12T07:55:16.850Z,11.29
2022-11-12T07:57:46.316Z,11.46
2022-11-12T08:00:17.290Z,11.64
2022-11-12T08:02:47.858Z,11.82
2022-11-12T08:05:21.314Z,11.89
2022-11-12T08:07:51.153Z,11.96
2022-11-12T08:10:21.542Z,11.97
2022-11-12T08:12:53.113Z,11.98
2022-11-12T08:15:32.576Z,11.99
2022-11-12T08:18:06.463Z,11.98
2022-11-12T08:20:35.408Z,12.06
2022-11-12T08:23:04.729Z,12.17
2022-11-12T08:25:33.904Z,12.18
2022-11-12T08:28:02.866Z,12.26
2022-11-12T08:30:32.381Z,12.23
2022-11-12T08:33:07.103Z,12.25
2022-11-12T08:35:40.307Z,12.37
2022-11-12T08:38:10.694Z,12.23
2022-11-12T08:40:40.173Z,12.11
2022-11-12T08:43:17.724Z,12.14
2022-11-12T08:45:50.580Z,12.16
2022-11-12T08:48:25.085Z,12.21
2022-11-12T08:50:54.665Z,12.11
2022-11-12T08:53:26.199Z,12.00
2022-11-12T08:55:56.490Z,11.99
2022-11-12T08:58:27.232Z,11.90
2022-11-12T09:00:58.441Z,11.89
2022-11-12T09:03:29.112Z,11.84
2022-11-12T09:05:58.542Z,11.86
2022-11-12T09:08:27.692Z,11.85
2022-11-12T09:11:05.586Z,11.78
2022-11-12T09:13:35.742Z,11.79
2022-11-12T09:16:11.246Z,11.90
2022-11-12T09:18:43.696Z,12.03
2022-11-12T09:21:14.455Z,12.02
2022-11-12T09:23:43.649Z,12.11
2022-11-12T09:26:15.546Z,12.24
2022-11-12T09:28:45.006Z,12.23
2022-11-12T09:31:16.206Z,12.37
2022-11-12T09:33:47.029Z,12.47
2022-11-12T09:36:19.551Z,12.54
2022-11-12T09:38:48.515Z,12.64
2022-11-12T09:41:30.201Z,12.70
2022-11-12T09:44:04.593Z,12.85
2022-11-12T09:46:45.236Z,12.79
2022-11-12T09:49:24.723Z,12.68
2022-11-12T09:52:01.564Z,12.57
2022-11-12T09:54:35.098Z,12.49
2022-11-12T09:57:04.884Z,12.35
2022-11-12T09:59:43.584Z,12.46
2022-11-12T10:02:29.721Z,12.54
2022-11-12T10:05:19.621Z,12.49
2022-11-12T10:08:21.455Z,12.69
2022-11-12T10:11:03.125Z,12.79
2022-11-12T10:13:58.531Z,12.64
2022-11-12T10:16:51.833Z,12.58
2022-11-12T10:19:55.654Z,12.60
2022-11-12T10:22:43.990Z,12.64
2022-11-12T10:25:20.618Z,12.62
2022-11-12T10:27:52.123Z,12.63
2022-11-12T10:30:25.095Z,12.65
2022-11-12T10:32:54.780Z,12.84
2022-11-12T10:35:26.081Z,12.87
2022-11-12T10:38:04.294Z,12.87
2022-11-12T10:40:37.388Z,12.66
2022-11-12T10:43:21.687Z,12.56
2022-11-12T10:45:52.362Z,12.67
2022-11-12T10:48:34.541Z,12.90
2022-11-12T10:51:20.831Z,13.06
2022-11-12T10:53:54.106Z,13.16
2022-11-12T10:56:30.678Z,13.32
2022-11-12T10:59:19.937Z,13.69
2022-11-12T11:01:58.360Z,13.84
2022-11-12T11:04:40.007Z,14.12
2022-11-12T11:07:22.804Z,13.91
2022-11-12T11:09:58.510Z,13.93
2022-11-12T11:12:29.966Z,13.58
2022-11-12T11:15:10.362Z,13.44
2022-11-12T11:17:40.345Z,13.60
2022-11-12T11:20:27.385Z,13.74
2022-11-12T11:23:02.821Z,13.81
2022-11-12T11:25:38.636Z,13.69
2022-11-12T11:28:33.258Z,13.53
2022-11-12T11:31:18.597Z,13.52
2022-11-12T11:33:57.375Z,13.47
2022-11-12T11:36:42.247Z,13.60
2022-11-12T11:39:24.342Z,13.75
2022-11-12T11:42:14.856Z,13.94
2022-11-12T11:44:54.348Z,14.23
2022-11-12T11:47:59.872Z,14.48
2022-11-12T11:50:31.003Z,14.60
2022-11-12T11:53:21.705Z,14.89
2022-11-12T11:55:58.866Z,14.98
2022-11-12T11:59:01.812Z,15.17
2022-11-12T12:01:50.684Z,15.53
2022-11-12T12:04:44.199Z,15.60
2022-11-12T12:07:31.010Z,15.22
2022-11-12T12:10:18.585Z,14.97
2022-11-12T12:13:09.935Z,14.94
2022-11-12T12:16:03.091Z,14.98
2022-11-12T12:18:46.111Z,14.86
2022-11-12T12:21:22.219Z,14.87
2022-11-12T12:23:56.830Z,14.80
2022-11-12T12:26:32.395Z,14.71
2022-11-12T12:29:13.134Z,14.68
2022-11-12T12:31:52.495Z,14.48
2022-11-12T12:34:28.254Z,14.40
2022-11-12T12:37:07.410Z,14.46
2022-11-12T12:39:49.669Z,14.46
2022-11-12T12:42:27.980Z,14.41
2022-11-12T12:45:05.396Z,14.52
2022-11-12T12:47:44.616Z,14.63
2022-11-12T12:50:17.327Z,14.58
2022-11-12T12:53:05.618Z,14.45
2022-11-12T12:55:42.945Z,14.37
2022-11-12T12:58:28.992Z,14.33
2022-11-12T13:01:05.045Z,14.16
2022-11-12T13:03:59.146Z,14.25
2022-11-12T13:06:33.677Z,14.27
2022-11-12T13:09:08.384Z,14.26
2022-11-12T13:12:14.540Z,14.28
2022-11-12T13:15:16.853Z,14.39
2022-11-12T13:17:52.841Z,14.46
2022-11-12T13:20:43.454Z,14.33
2022-11-12T13:24:05.483Z,14.31
2022-11-12T13:26:57.626Z,14.10
2022-11-12T13:29:49.236Z,13.71
2022-11-12T13:32:41.978Z,13.78
2022-11-12T13:35:34.321Z,13.64
2022-11-12T13:38:15.955Z,13.44
2022-11-12T13:40:51.274Z,13.27
2022-11-12T13:43:40.396Z,13.05
2022-11-12T13:46:29.111Z,13.04
2022-11-12T13:49:03.855Z,12.93
2022-11-12T13:51:43.627Z,12.87
2022-11-12T13:54:44.367Z,12.69
2022-11-12T13:57:27.902Z,12.56
2022-11-12T14:00:28.281Z,12.26
2022-11-12T14:03:02.599Z,12.01
2022-11-12T14:05:37.431Z,11.79
2022-11-12T14:08:49.467Z,11.65
2022-11-12T14:11:49.863Z,11.52
2022-11-12T14:14:37.083Z,11.33
2022-11-12T14:17:27.524Z,11.17
2022-11-12T14:20:26.600Z,11.01
2022-11-12T14:22:56.303Z,10.98
2022-11-12T14:25:28.487Z,10.90
2022-11-12T14:27:59.351Z,10.81
2022-11-12T14:30:32.214Z,10.74
2022-11-12T14:33:10.420Z,10.70
2022-11-12T14:35:42.094Z,10.66
2022-11-12T14:38:20.322Z,10.61
2022-11-12T14:40:54.183Z,10.66
2022-11-12T14:43:38.105Z,10.66
2022-11-12T14:46:10.393Z,10.45
2022-11-12T14:48:52.779Z,10.26
2022-11-12T14:51:23.867Z,10.14
2022-11-12T14:54:01.739Z,10.01
2022-11-12T14:56:38.445Z,9.85
2022-11-12T14:59:13.041Z,9.65
2022-11-12T15:05:01.408Z,9.44
2022-11-12T15:07:35.442Z,9.29
2022-11-12T15:10:33.419Z,9.13
2022-11-12T15:13:07.115Z,8.97
2022-11-12T15:15:41.799Z,8.87
2022-11-12T15:18:20.289Z,8.79
2022-11-12T15:21:09.494Z,8.74
2022-11-12T15:23:38.677Z,8.73
2022-11-12T15:26:24.817Z,8.62
2022-11-12T15:29:15.594Z,8.43
2022-11-12T15:31:49.932Z,8.29
2022-11-12T15:34:49.948Z,8.17
2022-11-12T15:37:29.554Z,8.04
2022-11-12T15:40:10.908Z,7.96
2022-11-12T15:42:43.982Z,7.86
2022-11-12T15:45:19.366Z,7.79
2022-11-12T15:47:50.690Z,7.66
2022-11-12T15:50:22.867Z,7.60
2022-11-12T15:52:53.754Z,7.58
2022-11-12T15:55:22.846Z,7.54
2022-11-12T15:57:54.527Z,7.50
2022-11-12T16:00:33.017Z,7.49
2022-11-12T16:03:14.134Z,7.51
2022-11-12T16:05:43.282Z,7.55
2022-11-12T16:08:14.606Z,7.59
2022-11-12T16:10:46.964Z,7.69
2022-11-12T16:13:22.583Z,7.72
2022-11-12T16:15:53.273Z,7.78
2022-11-12T16:18:25.232Z,7.92
2022-11-12T16:20:54.275Z,7.99
2022-11-12T16:23:23.807Z,8.03
2022-11-12T16:25:53.648Z,8.05
2022-11-12T16:28:22.833Z,8.08
2022-11-12T16:30:52.717Z,8.05
2022-11-12T16:33:24.583Z,8.11
2022-11-12T16:35:54.068Z,8.19
2022-11-12T16:38:23.728Z,8.20
2022-11-12T16:40:56.410Z,8.31
2022-11-12T16:43:26.926Z,8.34
2022-11-12T16:45:56.149Z,8.41
2022-11-12T16:48:27.390Z,8.47
2022-11-12T16:50:56.077Z,8.45
2022-11-12T16:53:25.984Z,8.50
2022-11-12T16:55:55.383Z,8.57
2022-11-12T16:58:27.975Z,8.56
2022-11-12T17:00:57.034Z,8.56
2022-11-12T17:03:30.213Z,8.60
2022-11-12T17:06:01.464Z,8.66
2022-11-12T17:08:34.114Z,8.67
2022-11-12T17:11:10.513Z,8.69
2022-11-12T17:13:41.589Z,8.68
2022-11-12T17:16:14.474Z,8.71
2022-11-12T17:18:44.686Z,8.78
2022-11-12T17:21:17.327Z,8.72
2022-11-12T17:23:46.644Z,8.73
2022-11-12T17:26:22.019Z,8.74
2022-11-12T17:28:57.096Z,8.77
2022-11-12T17:31:29.242Z,8.81
2022-11-12T17:34:02.613Z,8.84
2022-11-12T17:36:32.281Z,8.86
2022-11-12T17:39:02.806Z,8.87
2022-11-12T17:41:32.472Z,8.82
2022-11-12T17:44:03.979Z,8.86
2022-11-12T17:46:36.043Z,8.91
2022-11-12T17:49:09.328Z,8.95
2022-11-12T17:51:38.956Z,8.98
2022-11-12T17:54:08.899Z,8.97
2022-11-12T17:56:38.352Z,8.96
2022-11-12T17:59:07.231Z,8.91
2022-11-12T18:01:38.159Z,8.76
2022-11-12T18:04:12.982Z,8.75
2022-11-12T18:06:42.061Z,8.68
2022-11-12T18:09:16.127Z,8.63
2022-11-12T18:11:48.572Z,8.54
2022-11-12T18:14:17.741Z,8.46
2022-11-12T18:16:50.816Z,8.40
2022-11-12T18:19:21.089Z,8.33
2022-11-12T18:21:53.243Z,8.25
2022-11-12T18:24:22.168Z,8.13
2022-11-12T18:26:51.534Z,7.99
2022-11-12T18:29:22.746Z,7.79
2022-11-12T18:31:51.386Z,7.67
2022-11-12T18:34:22.482Z,7.51
2022-11-12T18:36:51.897Z,7.41
2022-11-12T18:39:23.624Z,7.29
2022-11-12T18:41:56.240Z,7.14
2022-11-12T18:44:26.367Z,6.98
2022-11-12T18:46:56.209Z,6.88
2022-11-12T18:49:29.852Z,6.74
2022-11-12T18:51:58.918Z,6.54
2022-11-12T18:54:29.942Z,6.40
2022-11-12T18:56:59.335Z,6.24
2022-11-12T18:59:33.096Z,6.13
2022-11-12T19:02:02.461Z,6.08
2022-11-12T19:04:33.000Z,5.99
2022-11-12T19:07:02.462Z,6.03
2022-11-12T19:09:32.856Z,5.88
2022-11-12T19:12:01.881Z,5.77
2022-11-12T19:14:32.696Z,5.73
2022-11-12T19:17:01.566Z,5.64
2022-11-12T19:19:32.045Z,5.52
2022-11-12T19:22:01.303Z,5.42
2022-11-12T19:24:31.971Z,5.50
2022-11-12T19:27:00.895Z,5.43
2022-11-12T19:29:31.045Z,5.32
2022-11-12T19:32:01.713Z,5.20
2022-11-12T19:34:33.082Z,5.11
2022-11-12T19:37:31.795Z,5.05
2022-11-12T19:39:58.683Z,5.08
2022-11-12T19:42:28.398Z,5.00
2022-11-12T19:44:57.743Z,4.88
2022-11-12T19:47:26.783Z,4.79
2022-11-12T19:49:57.701Z,4.63
2022-11-12T19:52:30.030Z,4.72
2022-11-12T19:54:59.417Z,4.66
2022-11-12T19:57:31.662Z,4.51
2022-11-12T20:00:02.823Z,4.39
2022-11-12T20:02:33.496Z,4.43
2022-11-12T20:05:05.441Z,4.33
2022-11-12T20:07:36.863Z,4.34
2022-11-12T20:10:07.070Z,4.21
2022-11-12T20:12:42.304Z,4.29
2022-11-12T20:15:16.033Z,4.24
2022-11-12T20:17:48.102Z,4.09
2022-11-12T20:20:19.399Z,4.05
2022-11-12T20:22:48.547Z,3.99
2022-11-12T20:25:17.743Z,3.86
2022-11-12T20:27:47.243Z,3.76
2022-11-12T20:30:16.367Z,3.69
2022-11-12T20:32:45.938Z,3.67
2022-11-12T20:35:20.956Z,3.69
2022-11-12T20:37:56.255Z,3.76
2022-11-12T20:40:28.599Z,3.67
2022-11-12T20:42:57.630Z,3.79
2022-11-12T20:45:27.265Z,3.69
2022-11-12T20:47:57.843Z,3.65
2022-11-12T20:50:30.240Z,3.55
2022-11-12T20:53:00.803Z,3.46
2022-11-12T20:55:32.542Z,3.38
2022-11-12T20:58:04.951Z,3.33
2022-11-12T21:00:39.077Z,3.27
2022-11-12T21:03:07.766Z,3.23
2022-11-12T21:05:40.819Z,3.17
2022-11-12T21:08:14.736Z,3.11
2022-11-12T21:10:51.320Z,3.13
2022-11-12T21:13:20.714Z,3.03
2022-11-12T21:15:50.731Z,2.93
2022-11-12T21:18:20.239Z,2.95
2022-11-12T21:20:52.781Z,3.04
2022-11-12T21:23:25.772Z,3.07
2022-11-12T21:25:54.961Z,3.00
2022-11-12T21:28:23.834Z,2.89
2022-11-12T21:30:53.212Z,2.90
2022-11-12T21:33:22.516Z,2.79
2022-11-12T21:35:54.404Z,2.80
2022-11-12T21:38:26.492Z,2.78
2022-11-12T21:41:08.171Z,2.75
2022-11-12T21:43:39.602Z,2.66
2022-11-12T21:46:10.633Z,2.62
2022-11-12T21:48:40.052Z,2.68
2022-11-12T21:51:13.199Z,2.83
2022-11-12T21:53:45.223Z,2.93
2022-11-12T21:56:17.862Z,3.06
2022-11-12T21:58:46.937Z,3.26
2022-11-12T22:01:20.931Z,3.34
2022-11-12T22:03:52.868Z,3.32
2022-11-12T22:06:25.694Z,3.28
2022-11-12T22:08:59.820Z,3.12
2022-11-12T22:11:30.204Z,3.11
2022-11-12T22:13:59.087Z,3.08
2022-11-12T22:16:30.797Z,3.09
2022-11-12T22:19:01.435Z,3.15
2022-11-12T22:21:39.657Z,3.12
2022-11-12T22:24:12.767Z,3.09
2022-11-12T22:26:42.262Z,2.97
2022-11-12T22:29:11.063Z,2.76
2022-11-12T22:31:40.772Z,2.71
2022-11-12T22:34:11.663Z,2.69
2022-11-12T22:36:40.786Z,2.56
2022-11-12T22:39:11.292Z,2.47
2022-11-12T22:41:40.275Z,2.35
2022-11-12T22:44:09.739Z,2.62
2022-11-12T22:46:39.736Z,2.63
2022-11-12T22:49:08.914Z,2.67
2022-11-12T22:51:38.040Z,2.68
2022-11-12T22:54:10.278Z,2.73
2022-11-12T22:56:41.302Z,2.63
2022-11-12T22:59:12.807Z,2.60
2022-11-12T23:01:42.141Z,2.65
2022-11-12T23:04:14.249Z,2.73
2022-11-12T23:06:43.394Z,2.89
2022-11-12T23:09:17.692Z,3.03
2022-11-12T23:11:47.956Z,3.20
2022-11-12T23:14:20.096Z,3.18
2022-11-12T23:16:51.194Z,2.96
2022-11-12T23:19:20.473Z,2.74
2022-11-12T23:21:50.267Z,2.65
2022-11-12T23:24:19.542Z,2.80
2022-11-12T23:26:52.555Z,2.73
2022-11-12T23:29:21.510Z,2.65
2022-11-12T23:31:51.107Z,2.64
2022-11-12T23:34:20.792Z,2.72
2022-11-12T23:36:49.517Z,2.77
2022-11-12T23:39:18.669Z,2.69
2022-11-12T23:41:49.547Z,2.77
2022-11-12T23:44:18.791Z,2.94
2022-11-12T23:46:48.304Z,2.94
2022-11-12T23:49:19.079Z,2.85
2022-11-12T23:51:48.144Z,2.71
2022-11-12T23:54:24.207Z,2.66
2022-11-12T23:56:55.034Z,2.61
2022-11-12T23:59:24.335Z,2.48
